Terminal Aerodrome Forecast
Issued by NWS Memphis, TN

Home | Current Version | Previous Version | Text Only | Print | Product List | Glossary On
Versions: 1 2 3 4 5 6 7 8 9 10 11 12 13 14
000
FTUS44 KMEG 231720
TAFMKL
TAF
KMKL 231720Z 2318/2418 17008KT P6SM FEW050
     FM240400 17010G16KT P6SM SCT250
     FM240700 17012G19KT P6SM BKN018
     FM241700 17015G25KT P6SM BKN040=

USA.gov is the U.S. government's official web portal to all federal, state and local government web resources and services.